createdAt,value
2022-10-22T00:00:36.523Z,4.68
2022-10-22T00:05:37.991Z,4.95
2022-10-22T00:10:39.472Z,5.13
2022-10-22T00:15:41.050Z,5.47
2022-10-22T00:20:48.245Z,6.18
2022-10-22T00:25:49.870Z,6.15
2022-10-22T00:30:58.961Z,6.25
2022-10-22T00:36:01.932Z,5.82
2022-10-22T00:41:03.484Z,6.03
2022-10-22T00:46:05.092Z,6.75
2022-10-22T00:51:08.854Z,7.20
2022-10-22T00:56:12.190Z,6.80
2022-10-22T01:01:18.032Z,7.55
2022-10-22T01:06:42.187Z,8.13
2022-10-22T01:12:07.682Z,8.00
2022-10-22T01:17:34.125Z,8.23
2022-10-22T01:23:00.444Z,9.07
2022-10-22T01:28:16.945Z,8.20
2022-10-22T01:33:19.940Z,7.60
2022-10-22T01:38:24.614Z,8.70
2022-10-22T01:43:26.199Z,8.25
2022-10-22T01:48:39.031Z,7.95
2022-10-22T01:54:10.303Z,8.45
2022-10-22T01:59:41.740Z,7.93
2022-10-22T02:05:12.662Z,8.65
2022-10-22T02:10:16.007Z,8.25
2022-10-22T02:15:19.986Z,9.80
2022-10-22T02:20:35.153Z,9.50
2022-10-22T02:25:40.653Z,10.32
2022-10-22T02:30:47.962Z,9.60
2022-10-22T02:35:51.524Z,10.38
2022-10-22T02:40:53.291Z,10.40
2022-10-22T02:45:54.762Z,9.85
2022-10-22T02:50:56.472Z,9.85
2022-10-22T02:55:58.534Z,9.70
2022-10-22T03:01:00.242Z,10.45
2022-10-22T03:06:01.849Z,10.02
2022-10-22T03:11:03.486Z,10.20
2022-10-22T03:16:05.356Z,10.85
2022-10-22T03:21:38.867Z,10.10
2022-10-22T03:26:42.064Z,10.60
2022-10-22T03:31:44.687Z,10.82
2022-10-22T03:36:47.522Z,9.90
2022-10-22T03:41:51.246Z,10.02
2022-10-22T03:46:54.850Z,9.98
2022-10-22T03:52:14.879Z,11.05
2022-10-22T03:57:17.712Z,10.60
2022-10-22T04:02:19.331Z,11.77
2022-10-22T04:07:21.155Z,11.10
2022-10-22T04:12:22.726Z,12.35
2022-10-22T04:17:24.274Z,11.80
2022-10-22T04:22:26.871Z,12.55
2022-10-22T04:27:32.128Z,11.45
2022-10-22T04:32:33.631Z,12.07
2022-10-22T04:37:37.897Z,12.55
2022-10-22T04:42:39.654Z,12.63
2022-10-22T04:47:41.728Z,11.95
2022-10-22T04:52:46.582Z,11.68
2022-10-22T04:57:48.124Z,13.23
2022-10-22T05:02:50.572Z,11.88
2022-10-22T05:07:52.191Z,12.43
2022-10-22T05:12:53.667Z,11.75
2022-10-22T05:17:55.139Z,11.48
2022-10-22T05:22:56.795Z,11.88
2022-10-22T05:28:00.247Z,11.63
2022-10-22T05:33:02.164Z,12.70
2022-10-22T05:38:05.022Z,12.13
2022-10-22T05:43:06.487Z,11.88
2022-10-22T05:48:09.879Z,12.23
2022-10-22T05:53:11.877Z,11.02
2022-10-22T05:58:14.016Z,9.85
2022-10-22T06:03:15.513Z,11.10
2022-10-22T06:08:19.079Z,11.15
2022-10-22T06:13:20.778Z,9.98
2022-10-22T06:18:22.267Z,10.82
2022-10-22T06:23:23.821Z,10.85
2022-10-22T06:28:25.565Z,11.50
2022-10-22T06:33:28.943Z,11.10
2022-10-22T06:38:30.436Z,10.52
2022-10-22T06:43:33.435Z,11.68
2022-10-22T06:48:38.057Z,11.70
2022-10-22T06:53:40.702Z,11.52
2022-10-22T06:58:43.528Z,11.65
2022-10-22T07:03:45.802Z,10.93
2022-10-22T07:08:47.334Z,11.88
2022-10-22T07:13:49.495Z,10.77
2022-10-22T07:18:51.198Z,12.32
2022-10-22T07:23:53.062Z,11.25
2022-10-22T07:28:54.534Z,11.48
2022-10-22T07:33:56.433Z,11.85
2022-10-22T07:39:00.717Z,11.15
2022-10-22T07:44:02.291Z,9.68
2022-10-22T07:49:03.802Z,10.15
2022-10-22T07:54:11.190Z,9.07
2022-10-22T07:59:12.699Z,9.43
2022-10-22T08:04:14.229Z,10.38
2022-10-22T08:09:15.977Z,9.30
2022-10-22T08:14:17.549Z,8.73
2022-10-22T08:19:21.124Z,9.05
2022-10-22T08:24:22.749Z,7.85
2022-10-22T08:29:27.001Z,8.90
2022-10-22T08:34:29.397Z,8.65
2022-10-22T08:39:30.827Z,8.15
2022-10-22T08:44:52.100Z,8.18
2022-10-22T08:49:57.114Z,6.75
2022-10-22T08:55:01.892Z,6.57
2022-10-22T09:00:13.469Z,5.70
2022-10-22T09:05:39.464Z,5.55
2022-10-22T09:11:14.094Z,4.77
2022-10-22T09:16:36.737Z,3.63
2022-10-22T09:21:46.306Z,4.57
2022-10-22T09:26:49.120Z,4.07
2022-10-22T09:31:53.420Z,3.25
2022-10-22T09:37:00.989Z,3.53
2022-10-22T09:42:02.571Z,3.17
2022-10-22T09:47:37.264Z,4.03
2022-10-22T09:52:45.455Z,3.05
2022-10-22T09:57:54.905Z,3.85
2022-10-22T10:03:00.208Z,2.83
2022-10-22T10:08:22.381Z,4.80
2022-10-22T10:13:38.513Z,3.47
2022-10-22T10:18:58.084Z,2.95
2022-10-22T10:24:24.265Z,3.78
2022-10-22T10:29:50.376Z,3.05
2022-10-22T10:35:23.016Z,3.92
2022-10-22T10:40:51.494Z,3.60
2022-10-22T10:46:20.827Z,3.83
2022-10-22T10:52:11.350Z,3.63
2022-10-22T10:57:39.989Z,3.58
2022-10-22T11:03:15.791Z,3.10
2022-10-22T11:08:26.819Z,4.45
2022-10-22T11:13:34.362Z,2.97
2022-10-22T11:18:40.269Z,3.38
2022-10-22T11:23:53.538Z,2.75
2022-10-22T11:28:59.419Z,2.50
2022-10-22T11:34:32.183Z,2.42
2022-10-22T11:39:59.761Z,2.80
2022-10-22T11:50:41.474Z,2.88
2022-10-22T11:55:46.748Z,2.42
2022-10-22T12:00:49.164Z,2.37
2022-10-22T12:06:20.765Z,2.70
2022-10-22T12:11:39.456Z,2.47
2022-10-22T12:16:56.253Z,3.03
2022-10-22T12:22:07.507Z,1.83
2022-10-22T12:27:36.670Z,1.80
2022-10-22T12:32:44.375Z,2.45
2022-10-22T12:37:50.027Z,2.72
2022-10-22T12:43:00.436Z,4.38
2022-10-22T12:48:05.239Z,3.13
2022-10-22T12:53:14.334Z,2.35
2022-10-22T12:59:02.715Z,2.13
2022-10-22T13:04:21.463Z,3.78
2022-10-22T13:09:27.604Z,3.28
2022-10-22T13:14:32.474Z,3.03
2022-10-22T13:19:43.153Z,3.15
2022-10-22T13:24:50.291Z,2.33
2022-10-22T13:29:58.309Z,2.70
2022-10-22T13:35:02.233Z,2.88
2022-10-22T13:40:12.249Z,3.60
2022-10-22T13:45:14.467Z,2.83
2022-10-22T13:50:18.661Z,3.17
2022-10-22T13:55:29.296Z,3.00
2022-10-22T14:00:31.714Z,3.05
2022-10-22T14:05:33.268Z,3.15
2022-10-22T14:10:34.727Z,2.78
2022-10-22T14:15:37.323Z,3.25
2022-10-22T14:20:42.389Z,2.92
2022-10-22T14:25:43.900Z,2.55
2022-10-22T14:30:46.582Z,2.45
2022-10-22T14:35:49.205Z,2.42
2022-10-22T14:40:50.799Z,3.10
2022-10-22T14:45:52.461Z,3.05
2022-10-22T14:50:56.240Z,2.80
2022-10-22T14:55:59.713Z,5.10
2022-10-22T15:01:04.514Z,3.92
2022-10-22T15:06:06.456Z,3.55
2022-10-22T15:11:14.178Z,3.72
2022-10-22T15:16:21.812Z,4.60
2022-10-22T15:21:29.647Z,3.10
2022-10-22T15:26:37.016Z,2.83
2022-10-22T15:31:46.444Z,3.20
2022-10-22T15:36:48.184Z,4.20
2022-10-22T15:41:53.535Z,2.83
2022-10-22T15:46:56.197Z,2.83
2022-10-22T15:52:00.015Z,3.28
2022-10-22T15:57:08.405Z,3.70
2022-10-22T16:02:18.720Z,5.80
2022-10-22T16:07:23.982Z,3.65
2022-10-22T16:17:29.355Z,3.30
2022-10-22T16:22:37.074Z,3.20
2022-10-22T16:27:39.258Z,3.08
2022-10-22T16:32:41.011Z,3.85
2022-10-22T16:37:45.910Z,3.65
2022-10-22T16:42:50.397Z,2.67
2022-10-22T16:47:52.050Z,2.75
2022-10-22T16:52:53.643Z,2.80
2022-10-22T16:57:55.223Z,2.55
2022-10-22T17:02:56.949Z,3.67
2022-10-22T17:07:58.457Z,3.60
2022-10-22T17:13:00.005Z,3.40
2022-10-22T17:18:01.757Z,5.07
2022-10-22T17:23:03.295Z,4.68
2022-10-22T17:28:04.797Z,3.75
2022-10-22T17:33:07.720Z,3.08
2022-10-22T17:38:09.232Z,3.70
2022-10-22T17:43:13.419Z,3.65
2022-10-22T17:48:14.899Z,3.60
2022-10-22T17:53:16.695Z,4.43
2022-10-22T17:58:18.155Z,4.00
2022-10-22T18:03:22.115Z,4.47
2022-10-22T18:08:26.783Z,4.20
2022-10-22T18:13:28.456Z,4.45
2022-10-22T18:18:30.302Z,4.30
2022-10-22T18:23:31.798Z,4.15
2022-10-22T18:28:34.900Z,4.75
2022-10-22T18:33:37.250Z,5.30
2022-10-22T18:38:41.372Z,6.05
2022-10-22T18:43:49.172Z,4.18
2022-10-22T18:48:55.524Z,4.22
2022-10-22T18:54:05.482Z,3.80
2022-10-22T18:59:22.699Z,4.43
2022-10-22T19:04:24.249Z,5.60
2022-10-22T19:09:26.621Z,30.38
2022-10-22T19:14:28.138Z,10.73
2022-10-22T19:19:34.955Z,3.38
2022-10-22T19:24:36.442Z,3.88
2022-10-22T19:29:39.412Z,4.47
2022-10-22T19:34:42.544Z,3.67
2022-10-22T19:39:44.221Z,3.90
2022-10-22T19:44:45.700Z,4.63
2022-10-22T19:49:47.124Z,5.05
2022-10-22T19:54:48.808Z,4.38
2022-10-22T19:59:52.863Z,6.03
2022-10-22T20:04:54.312Z,4.35
2022-10-22T20:09:55.828Z,4.63
2022-10-22T20:14:59.572Z,4.97
2022-10-22T20:20:02.779Z,5.10
2022-10-22T20:25:06.283Z,4.55
2022-10-22T20:30:08.932Z,4.75
2022-10-22T20:35:10.412Z,3.65
2022-10-22T20:40:12.944Z,4.75
2022-10-22T20:45:14.495Z,6.30
2022-10-22T20:50:17.795Z,4.63
2022-10-22T20:55:20.896Z,4.75
2022-10-22T21:00:22.462Z,4.53
2022-10-22T21:05:23.934Z,4.18
2022-10-22T21:10:27.988Z,3.97
2022-10-22T21:15:35.481Z,3.45
2022-10-22T21:20:39.262Z,4.70
2022-10-22T21:25:43.321Z,5.45
2022-10-22T21:30:46.165Z,5.25
2022-10-22T21:35:55.898Z,5.50
2022-10-22T21:40:57.527Z,5.85
2022-10-22T21:46:10.150Z,5.32
2022-10-22T21:51:17.698Z,7.95
2022-10-22T21:56:26.277Z,6.65
2022-10-22T22:01:27.911Z,5.90
2022-10-22T22:06:33.067Z,4.80
2022-10-22T22:11:35.244Z,5.40
2022-10-22T22:16:36.748Z,5.88
2022-10-22T22:21:39.878Z,5.68
2022-10-22T22:26:41.402Z,5.35
2022-10-22T22:31:43.579Z,5.68
2022-10-22T22:36:46.960Z,5.97
2022-10-22T22:41:48.662Z,5.00
2022-10-22T22:46:50.281Z,5.88
2022-10-22T22:51:51.775Z,5.22
2022-10-22T22:56:53.260Z,5.13
2022-10-22T23:01:56.263Z,5.38
2022-10-22T23:06:57.770Z,5.25
2022-10-22T23:11:59.158Z,4.88
2022-10-22T23:17:00.647Z,5.03
2022-10-22T23:22:02.625Z,5.25
2022-10-22T23:27:04.749Z,6.05
2022-10-22T23:32:11.960Z,5.80
2022-10-22T23:37:13.416Z,5.97
2022-10-22T23:42:14.847Z,5.68
2022-10-22T23:47:16.368Z,5.85
2022-10-22T23:52:17.958Z,7.28
2022-10-22T23:57:19.449Z,6.97
